sensor_id;sensor_type;location;lat;lon;timestamp;pressure;altitude;pressure_sealevel;temperature;humidity
73700;BME280;62005;50.082;8.988;2023-05-02T00:00:47;100551.50;;;14.75;65.41
73700;BME280;62005;50.082;8.988;2023-05-02T00:03:13;100539.13;;;14.67;65.28
73700;BME280;62005;50.082;8.988;2023-05-02T00:05:38;100552.84;;;14.72;65.13
73700;BME280;62005;50.082;8.988;2023-05-02T00:08:04;100534.66;;;14.61;65.33
73700;BME280;62005;50.082;8.988;2023-05-02T00:10:30;100539.28;;;14.61;65.51
73700;BME280;62005;50.082;8.988;2023-05-02T00:12:55;100542.91;;;14.66;65.58
73700;BME280;62005;50.082;8.988;2023-05-02T00:15:21;100551.66;;;14.68;65.74
73700;BME280;62005;50.082;8.988;2023-05-02T00:17:46;100540.09;;;14.61;66.16
73700;BME280;62005;50.082;8.988;2023-05-02T00:20:12;100540.59;;;14.58;66.78
73700;BME280;62005;50.082;8.988;2023-05-02T00:22:38;100541.66;;;14.57;66.78
73700;BME280;62005;50.082;8.988;2023-05-02T00:25:04;100554.78;;;14.60;66.83
73700;BME280;62005;50.082;8.988;2023-05-02T00:27:30;100550.97;;;14.61;67.67
73700;BME280;62005;50.082;8.988;2023-05-02T00:29:59;100553.59;;;14.56;67.12
73700;BME280;62005;50.082;8.988;2023-05-02T00:32:25;100554.69;;;14.55;67.37
73700;BME280;62005;50.082;8.988;2023-05-02T00:34:51;100535.94;;;14.42;67.81
73700;BME280;62005;50.082;8.988;2023-05-02T00:37:16;100546.00;;;14.42;68.36
73700;BME280;62005;50.082;8.988;2023-05-02T00:39:41;100561.81;;;14.45;67.13
73700;BME280;62005;50.082;8.988;2023-05-02T00:42:07;100559.34;;;14.43;66.80
73700;BME280;62005;50.082;8.988;2023-05-02T00:44:32;100554.97;;;14.42;66.26
73700;BME280;62005;50.082;8.988;2023-05-02T00:47:00;100551.34;;;14.36;66.41
73700;BME280;62005;50.082;8.988;2023-05-02T00:49:26;100562.81;;;14.38;66.76
73700;BME280;62005;50.082;8.988;2023-05-02T00:51:52;100560.31;;;14.37;66.78
73700;BME280;62005;50.082;8.988;2023-05-02T00:54:18;100541.34;;;14.25;66.15
73700;BME280;62005;50.082;8.988;2023-05-02T00:56:43;100559.97;;;14.33;66.69
73700;BME280;62005;50.082;8.988;2023-05-02T00:59:09;100551.97;;;14.27;66.81
73700;BME280;62005;50.082;8.988;2023-05-02T01:07:16;100569.78;;;14.23;67.49
73700;BME280;62005;50.082;8.988;2023-05-02T01:15:01;100571.25;;;14.14;67.66
73700;BME280;62005;50.082;8.988;2023-05-02T01:17:31;100567.59;;;14.08;67.42
73700;BME280;62005;50.082;8.988;2023-05-02T01:19:59;100571.03;;;14.04;67.10
73700;BME280;62005;50.082;8.988;2023-05-02T01:22:27;100569.84;;;14.00;67.59
73700;BME280;62005;50.082;8.988;2023-05-02T01:25:13;100578.25;;;13.98;67.66
73700;BME280;62005;50.082;8.988;2023-05-02T01:27:59;100578.72;;;13.95;67.50
73700;BME280;62005;50.082;8.988;2023-05-02T01:30:30;100568.00;;;13.89;67.30
73700;BME280;62005;50.082;8.988;2023-05-02T01:32:58;100579.56;;;13.96;69.08
73700;BME280;62005;50.082;8.988;2023-05-02T01:35:26;100580.06;;;13.93;68.87
73700;BME280;62005;50.082;8.988;2023-05-02T01:37:53;100583.94;;;13.85;69.08
73700;BME280;62005;50.082;8.988;2023-05-02T01:40:20;100596.00;;;13.89;69.39
73700;BME280;62005;50.082;8.988;2023-05-02T01:42:50;100585.88;;;13.85;68.91
73700;BME280;62005;50.082;8.988;2023-05-02T01:45:18;100589.03;;;13.82;69.35
73700;BME280;62005;50.082;8.988;2023-05-02T01:47:44;100588.81;;;13.72;69.26
73700;BME280;62005;50.082;8.988;2023-05-02T01:50:16;100595.31;;;13.71;69.26
73700;BME280;62005;50.082;8.988;2023-05-02T01:52:44;100588.94;;;13.65;69.68
73700;BME280;62005;50.082;8.988;2023-05-02T01:55:13;100585.78;;;13.57;69.27
73700;BME280;62005;50.082;8.988;2023-05-02T01:57:41;100592.47;;;13.54;70.34
73700;BME280;62005;50.082;8.988;2023-05-02T02:00:08;100608.66;;;13.61;70.26
73700;BME280;62005;50.082;8.988;2023-05-02T02:02:35;100614.56;;;13.58;69.79
73700;BME280;62005;50.082;8.988;2023-05-02T02:05:03;100608.44;;;13.51;70.19
73700;BME280;62005;50.082;8.988;2023-05-02T02:07:30;100612.69;;;13.47;70.09
73700;BME280;62005;50.082;8.988;2023-05-02T02:09:55;100619.88;;;13.41;70.72
73700;BME280;62005;50.082;8.988;2023-05-02T02:12:31;100628.13;;;13.35;70.40
73700;BME280;62005;50.082;8.988;2023-05-02T02:15:08;100611.94;;;13.17;70.95
73700;BME280;62005;50.082;8.988;2023-05-02T02:17:54;100637.66;;;13.26;71.41
73700;BME280;62005;50.082;8.988;2023-05-02T02:20:21;100636.97;;;13.19;70.95
73700;BME280;62005;50.082;8.988;2023-05-02T02:22:47;100639.56;;;13.14;71.13
73700;BME280;62005;50.082;8.988;2023-05-02T02:25:15;100644.97;;;13.14;71.26
73700;BME280;62005;50.082;8.988;2023-05-02T02:27:41;100647.56;;;13.08;71.04
73700;BME280;62005;50.082;8.988;2023-05-02T02:30:08;100632.03;;;12.97;71.19
73700;BME280;62005;50.082;8.988;2023-05-02T02:32:34;100628.59;;;12.90;71.36
73700;BME280;62005;50.082;8.988;2023-05-02T02:35:00;100639.81;;;12.94;71.71
73700;BME280;62005;50.082;8.988;2023-05-02T02:37:32;100636.25;;;12.82;71.95
73700;BME280;62005;50.082;8.988;2023-05-02T02:41:08;100649.09;;;12.86;72.50
73700;BME280;62005;50.082;8.988;2023-05-02T02:43:25;100629.22;;;12.74;73.14
73700;BME280;62005;50.082;8.988;2023-05-02T02:48:40;100646.44;;;12.68;72.48
73700;BME280;62005;50.082;8.988;2023-05-02T02:51:23;100648.53;;;12.66;72.99
73700;BME280;62005;50.082;8.988;2023-05-02T02:56:35;100654.91;;;12.60;73.20
73700;BME280;62005;50.082;8.988;2023-05-02T02:59:26;100667.84;;;12.58;73.02
73700;BME280;62005;50.082;8.988;2023-05-02T03:02:00;100652.50;;;12.52;73.64
73700;BME280;62005;50.082;8.988;2023-05-02T03:04:30;100648.81;;;12.47;72.79
73700;BME280;62005;50.082;8.988;2023-05-02T03:06:57;100659.28;;;12.43;73.48
73700;BME280;62005;50.082;8.988;2023-05-02T03:09:22;100660.19;;;12.37;74.29
73700;BME280;62005;50.082;8.988;2023-05-02T03:11:47;100659.00;;;12.33;74.06
73700;BME280;62005;50.082;8.988;2023-05-02T03:14:13;100669.38;;;12.36;74.15
73700;BME280;62005;50.082;8.988;2023-05-02T03:16:39;100667.34;;;12.32;74.19
73700;BME280;62005;50.082;8.988;2023-05-02T03:19:05;100669.53;;;12.23;74.29
73700;BME280;62005;50.082;8.988;2023-05-02T03:21:31;100677.09;;;12.21;75.45
73700;BME280;62005;50.082;8.988;2023-05-02T03:24:01;100674.22;;;12.16;74.97
73700;BME280;62005;50.082;8.988;2023-05-02T03:26:27;100688.41;;;12.12;75.25
73700;BME280;62005;50.082;8.988;2023-05-02T03:28:53;100685.31;;;12.08;75.11
73700;BME280;62005;50.082;8.988;2023-05-02T03:31:19;100687.69;;;12.05;75.76
73700;BME280;62005;50.082;8.988;2023-05-02T03:33:45;100685.63;;;12.00;75.22
73700;BME280;62005;50.082;8.988;2023-05-02T03:36:10;100684.50;;;11.90;75.51
73700;BME280;62005;50.082;8.988;2023-05-02T03:38:36;100703.41;;;11.96;75.03
73700;BME280;62005;50.082;8.988;2023-05-02T03:41:02;100701.13;;;11.93;75.69
73700;BME280;62005;50.082;8.988;2023-05-02T03:43:28;100700.38;;;11.86;75.47
73700;BME280;62005;50.082;8.988;2023-05-02T03:45:53;100707.88;;;11.84;75.14
73700;BME280;62005;50.082;8.988;2023-05-02T03:48:19;100695.69;;;11.75;75.39
73700;BME280;62005;50.082;8.988;2023-05-02T03:50:44;100699.59;;;11.79;75.30
73700;BME280;62005;50.082;8.988;2023-05-02T03:53:09;100700.72;;;11.71;76.46
73700;BME280;62005;50.082;8.988;2023-05-02T03:55:39;100715.50;;;11.69;75.83
73700;BME280;62005;50.082;8.988;2023-05-02T03:58:05;100712.19;;;11.67;76.34
73700;BME280;62005;50.082;8.988;2023-05-02T04:00:30;100712.22;;;11.60;76.31
73700;BME280;62005;50.082;8.988;2023-05-02T04:02:56;100728.44;;;11.67;76.66
73700;BME280;62005;50.082;8.988;2023-05-02T04:05:21;100727.22;;;11.63;76.80
73700;BME280;62005;50.082;8.988;2023-05-02T04:07:46;100733.66;;;11.62;75.97
73700;BME280;62005;50.082;8.988;2023-05-02T04:10:12;100748.88;;;11.63;76.29
73700;BME280;62005;50.082;8.988;2023-05-02T04:12:41;100739.97;;;11.56;76.88
73700;BME280;62005;50.082;8.988;2023-05-02T04:15:07;100746.84;;;11.58;76.80
73700;BME280;62005;50.082;8.988;2023-05-02T04:17:32;100736.47;;;11.49;77.50
73700;BME280;62005;50.082;8.988;2023-05-02T04:19:58;100738.59;;;11.47;77.65
73700;BME280;62005;50.082;8.988;2023-05-02T04:22:23;100767.66;;;11.58;77.51
73700;BME280;62005;50.082;8.988;2023-05-02T04:24:48;100753.94;;;11.53;77.84
73700;BME280;62005;50.082;8.988;2023-05-02T04:27:14;100745.41;;;11.49;78.07
73700;BME280;62005;50.082;8.988;2023-05-02T04:29:39;100754.78;;;11.53;77.95
73700;BME280;62005;50.082;8.988;2023-05-02T04:32:05;100773.06;;;11.58;78.46
73700;BME280;62005;50.082;8.988;2023-05-02T04:34:31;100757.09;;;11.50;78.36
73700;BME280;62005;50.082;8.988;2023-05-02T04:36:56;100768.94;;;11.49;78.48
73700;BME280;62005;50.082;8.988;2023-05-02T04:39:22;100772.66;;;11.54;78.57
73700;BME280;62005;50.082;8.988;2023-05-02T04:41:47;100785.53;;;11.59;78.96
73700;BME280;62005;50.082;8.988;2023-05-02T04:44:12;100786.78;;;11.63;78.96
73700;BME280;62005;50.082;8.988;2023-05-02T04:46:38;100784.72;;;11.58;78.85
73700;BME280;62005;50.082;8.988;2023-05-02T04:49:03;100798.84;;;11.67;79.32
73700;BME280;62005;50.082;8.988;2023-05-02T04:51:28;100802.16;;;11.69;79.58
73700;BME280;62005;50.082;8.988;2023-05-02T04:53:55;100807.59;;;11.69;80.12
73700;BME280;62005;50.082;8.988;2023-05-02T04:56:21;100805.53;;;11.64;79.83
73700;BME280;62005;50.082;8.988;2023-05-02T04:58:46;100810.50;;;11.67;79.87
73700;BME280;62005;50.082;8.988;2023-05-02T05:01:11;100831.69;;;11.77;79.79
73700;BME280;62005;50.082;8.988;2023-05-02T05:03:37;100835.47;;;11.76;80.03
73700;BME280;62005;50.082;8.988;2023-05-02T05:06:02;100838.78;;;11.78;79.67
73700;BME280;62005;50.082;8.988;2023-05-02T05:08:28;100832.13;;;11.74;79.83
73700;BME280;62005;50.082;8.988;2023-05-02T05:10:53;100843.75;;;11.81;79.84
73700;BME280;62005;50.082;8.988;2023-05-02T05:13:19;100840.44;;;11.79;80.35
73700;BME280;62005;50.082;8.988;2023-05-02T05:15:44;100834.56;;;11.82;80.50
73700;BME280;62005;50.082;8.988;2023-05-02T05:18:09;100854.94;;;11.91;79.77
73700;BME280;62005;50.082;8.988;2023-05-02T05:20:35;100856.59;;;11.92;80.00
73700;BME280;62005;50.082;8.988;2023-05-02T05:23:00;100855.97;;;11.90;79.57
73700;BME280;62005;50.082;8.988;2023-05-02T05:25:26;100861.56;;;11.95;80.28
73700;BME280;62005;50.082;8.988;2023-05-02T05:27:54;100865.72;;;11.98;79.79
73700;BME280;62005;50.082;8.988;2023-05-02T05:30:21;100866.56;;;11.98;79.71
73700;BME280;62005;50.082;8.988;2023-05-02T05:32:46;100881.50;;;12.07;79.80
73700;BME280;62005;50.082;8.988;2023-05-02T05:35:11;100885.72;;;12.03;79.60
73700;BME280;62005;50.082;8.988;2023-05-02T05:37:37;100891.09;;;12.10;79.78
73700;BME280;62005;50.082;8.988;2023-05-02T05:40:05;100885.84;;;12.08;79.65
73700;BME280;62005;50.082;8.988;2023-05-02T05:42:31;100899.75;;;12.18;80.19
73700;BME280;62005;50.082;8.988;2023-05-02T05:44:56;100898.72;;;12.19;80.33
73700;BME280;62005;50.082;8.988;2023-05-02T05:47:22;100902.22;;;12.26;80.13
73700;BME280;62005;50.082;8.988;2023-05-02T05:49:51;100885.94;;;12.26;79.89
73700;BME280;62005;50.082;8.988;2023-05-02T05:52:16;100907.06;;;12.42;80.14
73700;BME280;62005;50.082;8.988;2023-05-02T05:54:41;100892.44;;;12.43;79.58
73700;BME280;62005;50.082;8.988;2023-05-02T05:57:06;100902.72;;;12.59;79.33
73700;BME280;62005;50.082;8.988;2023-05-02T05:59:34;100901.78;;;12.72;78.46
73700;BME280;62005;50.082;8.988;2023-05-02T06:02:00;100906.69;;;12.81;78.13
73700;BME280;62005;50.082;8.988;2023-05-02T06:04:25;100913.56;;;13.08;77.54
73700;BME280;62005;50.082;8.988;2023-05-02T06:06:50;100891.69;;;13.22;76.79
73700;BME280;62005;50.082;8.988;2023-05-02T06:09:17;100905.06;;;13.53;76.09
73700;BME280;62005;50.082;8.988;2023-05-02T06:11:43;100898.00;;;13.81;75.14
73700;BME280;62005;50.082;8.988;2023-05-02T06:14:08;100908.84;;;14.11;74.23
73700;BME280;62005;50.082;8.988;2023-05-02T06:16:33;100899.59;;;14.42;73.07
73700;BME280;62005;50.082;8.988;2023-05-02T06:18:59;100907.78;;;14.65;71.06
73700;BME280;62005;50.082;8.988;2023-05-02T06:21:24;100893.00;;;14.72;70.78
73700;BME280;62005;50.082;8.988;2023-05-02T06:23:50;100915.56;;;14.96;70.47
73700;BME280;62005;50.082;8.988;2023-05-02T06:26:15;100907.28;;;15.02;69.65
73700;BME280;62005;50.082;8.988;2023-05-02T06:28:41;100898.28;;;15.13;69.43
73700;BME280;62005;50.082;8.988;2023-05-02T06:31:06;100919.56;;;15.39;69.51
73700;BME280;62005;50.082;8.988;2023-05-02T06:33:32;100920.97;;;15.53;67.72
73700;BME280;62005;50.082;8.988;2023-05-02T06:35:58;100928.28;;;15.64;66.87
73700;BME280;62005;50.082;8.988;2023-05-02T06:38:24;100928.00;;;15.78;67.20
73700;BME280;62005;50.082;8.988;2023-05-02T06:40:50;100918.44;;;15.92;66.62
73700;BME280;62005;50.082;8.988;2023-05-02T06:43:16;100928.25;;;16.21;65.91
73700;BME280;62005;50.082;8.988;2023-05-02T06:45:41;100932.75;;;16.43;64.73
73700;BME280;62005;50.082;8.988;2023-05-02T06:48:07;100937.25;;;16.66;64.63
73700;BME280;62005;50.082;8.988;2023-05-02T06:50:33;100931.63;;;16.89;63.24
73700;BME280;62005;50.082;8.988;2023-05-02T06:52:59;100946.66;;;17.08;61.54
73700;BME280;62005;50.082;8.988;2023-05-02T06:55:24;100934.22;;;17.17;60.79
73700;BME280;62005;50.082;8.988;2023-05-02T06:57:50;100950.00;;;17.32;61.19
73700;BME280;62005;50.082;8.988;2023-05-02T07:00:16;100950.94;;;17.42;61.52
73700;BME280;62005;50.082;8.988;2023-05-02T07:02:44;100953.84;;;17.52;61.21
73700;BME280;62005;50.082;8.988;2023-05-02T07:05:09;100953.31;;;17.55;60.08
73700;BME280;62005;50.082;8.988;2023-05-02T07:07:35;100959.97;;;17.59;60.36
73700;BME280;62005;50.082;8.988;2023-05-02T07:10:02;100953.97;;;17.62;60.35
73700;BME280;62005;50.082;8.988;2023-05-02T07:12:27;100953.53;;;17.70;59.78
73700;BME280;62005;50.082;8.988;2023-05-02T07:14:53;100942.13;;;17.78;58.95
73700;BME280;62005;50.082;8.988;2023-05-02T07:17:18;100951.34;;;17.94;59.32
73700;BME280;62005;50.082;8.988;2023-05-02T07:19:44;100962.41;;;18.04;58.74
73700;BME280;62005;50.082;8.988;2023-05-02T07:22:09;100961.06;;;18.06;57.45
73700;BME280;62005;50.082;8.988;2023-05-02T07:24:34;100951.78;;;18.07;57.91
73700;BME280;62005;50.082;8.988;2023-05-02T07:27:00;100964.47;;;18.18;58.06
73700;BME280;62005;50.082;8.988;2023-05-02T07:29:27;100977.16;;;18.30;57.16
73700;BME280;62005;50.082;8.988;2023-05-02T07:31:52;100962.63;;;18.24;58.17
73700;BME280;62005;50.082;8.988;2023-05-02T07:34:17;100976.03;;;18.26;55.51
73700;BME280;62005;50.082;8.988;2023-05-02T07:36:43;100984.72;;;18.17;56.45
73700;BME280;62005;50.082;8.988;2023-05-02T07:39:08;100983.25;;;18.10;56.38
73700;BME280;62005;50.082;8.988;2023-05-02T07:41:34;100977.41;;;18.01;56.45
73700;BME280;62005;50.082;8.988;2023-05-02T07:43:59;100989.13;;;17.97;56.07
73700;BME280;62005;50.082;8.988;2023-05-02T07:46:24;100998.13;;;17.92;56.34
73700;BME280;62005;50.082;8.988;2023-05-02T07:48:50;100988.75;;;17.88;56.67
73700;BME280;62005;50.082;8.988;2023-05-02T07:51:17;100993.66;;;17.86;57.23
73700;BME280;62005;50.082;8.988;2023-05-02T07:53:45;100986.22;;;17.82;57.11
73700;BME280;62005;50.082;8.988;2023-05-02T07:56:10;100979.09;;;17.81;56.80
73700;BME280;62005;50.082;8.988;2023-05-02T07:58:37;100990.69;;;17.88;57.81
73700;BME280;62005;50.082;8.988;2023-05-02T08:01:02;100997.47;;;17.85;57.46
73700;BME280;62005;50.082;8.988;2023-05-02T08:03:29;100996.16;;;17.88;57.41
73700;BME280;62005;50.082;8.988;2023-05-02T08:05:54;101001.31;;;17.84;56.77
73700;BME280;62005;50.082;8.988;2023-05-02T08:08:19;101002.22;;;17.73;56.90
73700;BME280;62005;50.082;8.988;2023-05-02T08:10:44;101006.84;;;17.68;57.21
73700;BME280;62005;50.082;8.988;2023-05-02T08:13:10;101017.13;;;17.61;57.14
73700;BME280;62005;50.082;8.988;2023-05-02T08:15:36;101008.53;;;17.52;56.50
73700;BME280;62005;50.082;8.988;2023-05-02T08:18:01;101005.06;;;17.40;56.75
73700;BME280;62005;50.082;8.988;2023-05-02T08:20:26;101025.25;;;17.39;57.16
73700;BME280;62005;50.082;8.988;2023-05-02T08:22:52;101011.34;;;17.24;57.79
73700;BME280;62005;50.082;8.988;2023-05-02T08:25:17;101030.56;;;17.29;57.95
73700;BME280;62005;50.082;8.988;2023-05-02T08:27:42;101024.44;;;17.22;58.16
73700;BME280;62005;50.082;8.988;2023-05-02T08:30:08;101029.91;;;17.22;58.59
73700;BME280;62005;50.082;8.988;2023-05-02T08:32:36;101027.25;;;17.27;58.77
73700;BME280;62005;50.082;8.988;2023-05-02T08:35:01;101022.78;;;17.21;58.84
73700;BME280;62005;50.082;8.988;2023-05-02T08:37:27;101035.38;;;17.22;58.27
73700;BME280;62005;50.082;8.988;2023-05-02T08:39:52;101030.25;;;17.09;58.16
73700;BME280;62005;50.082;8.988;2023-05-02T08:42:18;101030.25;;;17.09;58.46
73700;BME280;62005;50.082;8.988;2023-05-02T08:44:48;101040.53;;;17.02;58.84
73700;BME280;62005;50.082;8.988;2023-05-02T08:47:14;101047.66;;;17.03;58.95
73700;BME280;62005;50.082;8.988;2023-05-02T08:49:39;101042.69;;;17.00;59.23
73700;BME280;62005;50.082;8.988;2023-05-02T08:52:05;101054.09;;;16.97;59.03
73700;BME280;62005;50.082;8.988;2023-05-02T08:54:32;101047.63;;;16.86;59.66
73700;BME280;62005;50.082;8.988;2023-05-02T08:56:58;101067.34;;;16.88;59.46
73700;BME280;62005;50.082;8.988;2023-05-02T08:59:27;101066.31;;;16.78;58.74
73700;BME280;62005;50.082;8.988;2023-05-02T09:01:58;101072.28;;;16.75;59.16
73700;BME280;62005;50.082;8.988;2023-05-02T09:04:27;101072.19;;;16.70;59.43
73700;BME280;62005;50.082;8.988;2023-05-02T09:06:54;101078.72;;;16.69;59.40
73700;BME280;62005;50.082;8.988;2023-05-02T09:09:19;101079.19;;;16.66;59.77
73700;BME280;62005;50.082;8.988;2023-05-02T09:11:45;101086.34;;;16.67;59.64
73700;BME280;62005;50.082;8.988;2023-05-02T09:14:15;101086.34;;;16.67;59.95
73700;BME280;62005;50.082;8.988;2023-05-02T09:16:40;101090.63;;;16.63;60.22
73700;BME280;62005;50.082;8.988;2023-05-02T09:19:05;101098.91;;;16.68;59.60
73700;BME280;62005;50.082;8.988;2023-05-02T09:21:38;101109.31;;;16.71;59.30
73700;BME280;62005;50.082;8.988;2023-05-02T09:24:20;101101.63;;;16.68;59.07
73700;BME280;62005;50.082;8.988;2023-05-02T09:29:22;101106.69;;;16.76;59.09
73700;BME280;62005;50.082;8.988;2023-05-02T09:31:48;101097.69;;;16.75;59.17
73700;BME280;62005;50.082;8.988;2023-05-02T09:34:15;101096.44;;;16.83;59.65
73700;BME280;62005;50.082;8.988;2023-05-02T09:36:47;101086.72;;;16.87;59.02
73700;BME280;62005;50.082;8.988;2023-05-02T09:39:20;101096.63;;;16.93;59.17
73700;BME280;62005;50.082;8.988;2023-05-02T09:41:47;101105.00;;;17.03;59.12
73700;BME280;62005;50.082;8.988;2023-05-02T09:44:17;101096.91;;;17.08;59.34
73700;BME280;62005;50.082;8.988;2023-05-02T09:46:47;101098.63;;;17.14;59.30
73700;BME280;62005;50.082;8.988;2023-05-02T09:49:14;101098.81;;;17.24;58.67
73700;BME280;62005;50.082;8.988;2023-05-02T09:51:42;101087.88;;;17.24;58.27
73700;BME280;62005;50.082;8.988;2023-05-02T09:54:08;101081.00;;;17.22;58.10
73700;BME280;62005;50.082;8.988;2023-05-02T09:56:53;101101.97;;;17.49;56.79
73700;BME280;62005;50.082;8.988;2023-05-02T09:59:20;101093.00;;;17.54;56.42
73700;BME280;62005;50.082;8.988;2023-05-02T10:01:54;101097.84;;;17.63;56.81
73700;BME280;62005;50.082;8.988;2023-05-02T10:04:19;101098.97;;;17.67;57.53
73700;BME280;62005;50.082;8.988;2023-05-02T10:06:46;101087.59;;;17.75;56.28
73700;BME280;62005;50.082;8.988;2023-05-02T10:09:13;101089.34;;;17.81;56.80
73700;BME280;62005;50.082;8.988;2023-05-02T10:11:40;101079.53;;;17.85;55.74
73700;BME280;62005;50.082;8.988;2023-05-02T10:14:10;101095.03;;;17.96;55.93
73700;BME280;62005;50.082;8.988;2023-05-02T10:17:01;101086.09;;;18.06;55.93
73700;BME280;62005;50.082;8.988;2023-05-02T10:19:37;101098.06;;;18.21;55.74
73700;BME280;62005;50.082;8.988;2023-05-02T10:22:03;101083.91;;;18.30;56.36
73700;BME280;62005;50.082;8.988;2023-05-02T10:24:31;101085.81;;;18.46;55.69
73700;BME280;62005;50.082;8.988;2023-05-02T10:26:56;101094.69;;;18.58;55.32
73700;BME280;62005;50.082;8.988;2023-05-02T10:29:22;101085.44;;;18.64;54.21
73700;BME280;62005;50.082;8.988;2023-05-02T10:31:48;101089.31;;;18.68;54.35
73700;BME280;62005;50.082;8.988;2023-05-02T10:34:14;101087.16;;;18.70;54.90
73700;BME280;62005;50.082;8.988;2023-05-02T10:36:42;101065.22;;;18.70;53.79
73700;BME280;62005;50.082;8.988;2023-05-02T10:39:07;101062.28;;;18.76;53.79
73700;BME280;62005;50.082;8.988;2023-05-02T10:41:34;101071.97;;;18.84;53.36
73700;BME280;62005;50.082;8.988;2023-05-02T10:44:00;101081.91;;;18.95;53.28
73700;BME280;62005;50.082;8.988;2023-05-02T10:49:11;101062.22;;;18.98;52.82
73700;BME280;62005;50.082;8.988;2023-05-02T10:51:39;101079.06;;;19.11;52.71
73700;BME280;62005;50.082;8.988;2023-05-02T10:54:23;101071.47;;;19.23;54.27
73700;BME280;62005;50.082;8.988;2023-05-02T10:59:31;101052.13;;;19.35;54.62
73700;BME280;62005;50.082;8.988;2023-05-02T11:01:57;101067.63;;;19.56;54.19
73700;BME280;62005;50.082;8.988;2023-05-02T11:04:23;101078.66;;;19.66;53.97
73700;BME280;62005;50.082;8.988;2023-05-02T11:11:49;101058.16;;;19.79;53.34
73700;BME280;62005;50.082;8.988;2023-05-02T11:19:26;101065.16;;;20.06;53.34
73700;BME280;62005;50.082;8.988;2023-05-02T11:21:52;101070.69;;;20.16;53.23
73700;BME280;62005;50.082;8.988;2023-05-02T11:24:40;101064.16;;;20.22;51.98
73700;BME280;62005;50.082;8.988;2023-05-02T11:29:57;101057.00;;;20.21;50.76
73700;BME280;62005;50.082;8.988;2023-05-02T11:32:25;101066.34;;;20.20;51.16
73700;BME280;62005;50.082;8.988;2023-05-02T11:35:22;101064.13;;;20.17;50.80
73700;BME280;62005;50.082;8.988;2023-05-02T11:38:01;101067.44;;;20.19;50.92
73700;BME280;62005;50.082;8.988;2023-05-02T11:40:28;101060.84;;;20.20;52.16
73700;BME280;62005;50.082;8.988;2023-05-02T11:42:55;101057.00;;;20.21;51.53
73700;BME280;62005;50.082;8.988;2023-05-02T11:45:21;101058.13;;;20.25;50.33
73700;BME280;62005;50.082;8.988;2023-05-02T11:47:49;101047.41;;;20.24;49.80
73700;BME280;62005;50.082;8.988;2023-05-02T11:50:16;101051.81;;;20.30;47.99
73700;BME280;62005;50.082;8.988;2023-05-02T11:52:43;101042.22;;;20.32;48.58
73700;BME280;62005;50.082;8.988;2023-05-02T11:55:13;101047.72;;;20.37;49.78
73700;BME280;62005;50.082;8.988;2023-05-02T11:57:39;101041.38;;;20.32;48.54
73700;BME280;62005;50.082;8.988;2023-05-02T12:00:06;101054.03;;;20.43;49.13
73700;BME280;62005;50.082;8.988;2023-05-02T12:02:42;101049.38;;;20.43;48.63
73700;BME280;62005;50.082;8.988;2023-05-02T12:05:09;101045.00;;;20.47;46.18
73700;BME280;62005;50.082;8.988;2023-05-02T12:10:05;101046.38;;;20.55;47.27
73700;BME280;62005;50.082;8.988;2023-05-02T12:12:31;101048.88;;;20.56;48.53
73700;BME280;62005;50.082;8.988;2023-05-02T12:14:56;101054.94;;;20.63;49.42
73700;BME280;62005;50.082;8.988;2023-05-02T12:17:22;101057.69;;;20.68;49.71
73700;BME280;62005;50.082;8.988;2023-05-02T12:19:48;101060.44;;;20.73;48.37
73700;BME280;62005;50.082;8.988;2023-05-02T12:22:15;101057.13;;;20.71;47.90
73700;BME280;62005;50.082;8.988;2023-05-02T12:24:40;101057.69;;;20.68;46.80
73700;BME280;62005;50.082;8.988;2023-05-02T12:27:11;101061.53;;;20.67;47.40
73700;BME280;62005;50.082;8.988;2023-05-02T12:29:44;101063.44;;;20.62;46.63
73700;BME280;62005;50.082;8.988;2023-05-02T12:32:10;101070.28;;;20.54;47.42
73700;BME280;62005;50.082;8.988;2023-05-02T12:34:37;101070.25;;;20.49;47.52
73700;BME280;62005;50.082;8.988;2023-05-02T12:37:03;101046.06;;;20.36;46.55
73700;BME280;62005;50.082;8.988;2023-05-02T12:39:40;101067.50;;;20.44;46.57
73700;BME280;62005;50.082;8.988;2023-05-02T12:42:14;101068.06;;;20.41;45.93
73700;BME280;62005;50.082;8.988;2023-05-02T12:44:42;101068.00;;;20.31;46.42
73700;BME280;62005;50.082;8.988;2023-05-02T12:47:09;101071.31;;;20.28;46.69
73700;BME280;62005;50.082;8.988;2023-05-02T12:52:21;101075.63;;;20.14;46.62
73700;BME280;62005;50.082;8.988;2023-05-02T12:54:47;101083.88;;;20.14;47.32
73700;BME280;62005;50.082;8.988;2023-05-02T12:57:25;101079.44;;;20.08;47.40
73700;BME280;62005;50.082;8.988;2023-05-02T12:59:53;101086.53;;;19.99;47.30
73700;BME280;62005;50.082;8.988;2023-05-02T13:02:19;101087.38;;;20.00;47.78
73700;BME280;62005;50.082;8.988;2023-05-02T13:04:45;101081.03;;;19.99;46.15
73700;BME280;62005;50.082;8.988;2023-05-02T13:07:11;101076.84;;;19.87;45.88
73700;BME280;62005;50.082;8.988;2023-05-02T13:09:36;101090.34;;;19.88;45.42
73700;BME280;62005;50.082;8.988;2023-05-02T13:12:02;101092.50;;;19.86;46.58
73700;BME280;62005;50.082;8.988;2023-05-02T13:14:28;101091.41;;;19.87;46.70
73700;BME280;62005;50.082;8.988;2023-05-02T13:16:54;101094.69;;;19.84;45.54
73700;BME280;62005;50.082;8.988;2023-05-02T13:19:22;101094.44;;;19.91;46.82
73700;BME280;62005;50.082;8.988;2023-05-02T13:21:48;101087.03;;;19.91;47.88
73700;BME280;62005;50.082;8.988;2023-05-02T13:24:14;101081.59;;;19.96;46.32
73700;BME280;62005;50.082;8.988;2023-05-02T13:26:41;101069.22;;;19.99;47.45
73700;BME280;62005;50.082;8.988;2023-05-02T13:29:06;101074.47;;;20.05;47.36
73700;BME280;62005;50.082;8.988;2023-05-02T13:31:35;101080.56;;;20.12;47.11
73700;BME280;62005;50.082;8.988;2023-05-02T13:34:02;101082.19;;;20.13;47.32